createdAt,value
2023-05-21T00:02:11.850Z,5.68
2023-05-21T00:04:40.578Z,4.43
2023-05-21T00:07:08.390Z,4.97
2023-05-21T00:09:36.251Z,7.03
2023-05-21T00:12:02.663Z,7.03
2023-05-21T00:14:29.028Z,7.03
2023-05-21T00:16:55.398Z,6.15
2023-05-21T00:19:21.833Z,5.70
2023-05-21T00:21:48.325Z,9.93
2023-05-21T00:24:14.727Z,5.03
2023-05-21T00:26:41.222Z,6.43
2023-05-21T00:29:07.585Z,4.85
2023-05-21T00:31:34.130Z,5.07
2023-05-21T00:34:00.674Z,4.55
2023-05-21T00:36:27.122Z,4.63
2023-05-21T00:38:53.523Z,6.47
2023-05-21T00:41:19.972Z,6.35
2023-05-21T00:43:46.597Z,8.07
2023-05-21T00:46:19.556Z,4.70
2023-05-21T00:48:47.225Z,7.47
2023-05-21T00:51:14.903Z,5.60
2023-05-21T00:53:41.689Z,5.15
2023-05-21T00:56:08.183Z,8.27
2023-05-21T00:58:35.393Z,6.35
2023-05-21T01:01:03.697Z,5.93
2023-05-21T01:03:30.845Z,5.22
2023-05-21T01:06:00.079Z,4.25
2023-05-21T01:08:28.854Z,5.00
2023-05-21T01:10:56.357Z,7.65
2023-05-21T01:13:24.740Z,5.57
2023-05-21T01:15:52.156Z,5.88
2023-05-21T01:18:20.015Z,6.13
2023-05-21T01:20:50.189Z,9.57
2023-05-21T01:23:17.297Z,5.85
2023-05-21T01:25:44.311Z,6.05
2023-05-21T01:28:11.118Z,7.03
2023-05-21T01:30:39.398Z,4.80
2023-05-21T01:33:20.302Z,7.63
2023-05-21T01:36:08.601Z,8.55
2023-05-21T01:38:57.284Z,4.70
2023-05-21T01:41:26.218Z,7.32
2023-05-21T01:43:56.306Z,6.10
2023-05-21T01:46:26.846Z,6.00
2023-05-21T01:48:56.100Z,6.15
2023-05-21T01:51:23.934Z,6.18
2023-05-21T01:53:50.524Z,5.68
2023-05-21T01:56:16.904Z,4.57
2023-05-21T01:58:43.968Z,6.97
2023-05-21T02:01:11.708Z,6.50
2023-05-21T02:03:38.721Z,5.80
2023-05-21T02:06:05.367Z,6.60
2023-05-21T02:08:31.724Z,7.60
2023-05-21T02:10:58.164Z,7.28
2023-05-21T02:13:26.242Z,5.57
2023-05-21T02:15:54.457Z,6.53
2023-05-21T02:18:21.444Z,7.13
2023-05-21T02:20:47.816Z,6.88
2023-05-21T02:23:14.186Z,5.47
2023-05-21T02:25:40.660Z,8.02
2023-05-21T02:28:07.239Z,8.93
2023-05-21T02:30:33.683Z,7.75
2023-05-21T02:33:00.994Z,7.22
2023-05-21T02:35:27.656Z,7.03
2023-05-21T02:37:54.277Z,5.25
2023-05-21T02:40:20.716Z,5.65
2023-05-21T02:42:48.557Z,6.65
2023-05-21T02:45:14.916Z,6.88
2023-05-21T02:47:41.561Z,7.43
2023-05-21T02:50:08.940Z,6.97
2023-05-21T02:52:35.523Z,5.40
2023-05-21T02:55:01.948Z,7.70
2023-05-21T02:57:28.383Z,5.68
2023-05-21T02:59:54.753Z,6.65
2023-05-21T03:02:21.352Z,8.02
2023-05-21T03:04:47.918Z,7.88
2023-05-21T03:07:15.675Z,10.68
2023-05-21T03:09:42.464Z,6.07
2023-05-21T03:12:09.756Z,6.47
2023-05-21T03:14:36.193Z,7.22
2023-05-21T03:17:06.507Z,8.13
2023-05-21T03:19:36.835Z,8.98
2023-05-21T03:22:04.394Z,12.30
2023-05-21T03:24:31.645Z,8.52
2023-05-21T03:26:59.050Z,5.88
2023-05-21T03:29:25.468Z,7.43
2023-05-21T03:31:53.817Z,7.47
2023-05-21T03:34:20.351Z,6.15
2023-05-21T03:36:47.572Z,6.85
2023-05-21T03:39:14.105Z,8.82
2023-05-21T03:41:40.645Z,9.43
2023-05-21T03:44:07.086Z,5.55
2023-05-21T03:46:33.690Z,6.63
2023-05-21T03:49:00.222Z,7.07
2023-05-21T03:51:27.338Z,9.25
2023-05-21T03:53:53.741Z,7.55
2023-05-21T03:56:20.114Z,6.90
2023-05-21T03:58:46.786Z,8.50
2023-05-21T04:01:13.377Z,8.40
2023-05-21T04:03:40.869Z,7.10
2023-05-21T04:06:10.164Z,13.90
2023-05-21T04:08:38.085Z,6.13
2023-05-21T04:11:04.680Z,10.93
2023-05-21T04:13:31.101Z,7.90
2023-05-21T04:15:57.715Z,7.03
2023-05-21T04:18:26.096Z,7.05
2023-05-21T04:20:53.695Z,6.35
2023-05-21T04:23:20.239Z,6.95
2023-05-21T04:25:50.528Z,8.25
2023-05-21T04:28:19.951Z,9.30
2023-05-21T04:30:47.677Z,7.15
2023-05-21T04:33:17.993Z,5.95
2023-05-21T04:35:47.140Z,6.63
2023-05-21T04:38:14.027Z,9.93
2023-05-21T04:40:40.645Z,7.78
2023-05-21T04:43:08.103Z,6.75
2023-05-21T04:45:34.658Z,7.30
2023-05-21T04:48:01.395Z,6.88
2023-05-21T04:50:30.660Z,9.40
2023-05-21T04:52:58.718Z,6.75
2023-05-21T04:55:25.934Z,8.98
2023-05-21T04:57:52.889Z,8.55
2023-05-21T05:00:20.171Z,7.95
2023-05-21T05:02:46.725Z,7.35
2023-05-21T05:05:13.215Z,11.80
2023-05-21T05:07:39.600Z,6.95
2023-05-21T05:10:07.205Z,7.13
2023-05-21T05:12:33.642Z,9.27
2023-05-21T05:15:00.179Z,6.70
2023-05-21T05:17:26.709Z,11.10
2023-05-21T05:19:53.184Z,6.40
2023-05-21T05:22:19.576Z,6.70
2023-05-21T05:24:46.010Z,7.82
2023-05-21T05:27:12.406Z,6.60
2023-05-21T05:29:38.762Z,6.28
2023-05-21T05:32:05.653Z,6.78
2023-05-21T05:34:32.375Z,6.70
2023-05-21T05:36:58.863Z,9.25
2023-05-21T05:39:25.630Z,6.40
2023-05-21T05:41:52.056Z,9.43
2023-05-21T05:44:18.505Z,7.97
2023-05-21T05:46:45.278Z,8.45
2023-05-21T05:49:11.877Z,10.07
2023-05-21T05:51:38.365Z,7.03
2023-05-21T05:54:04.957Z,6.43
2023-05-21T05:56:31.351Z,7.72
2023-05-21T05:58:58.917Z,10.15
2023-05-21T06:01:26.176Z,9.00
2023-05-21T06:03:53.084Z,7.68
2023-05-21T06:06:20.073Z,8.35
2023-05-21T06:08:46.762Z,8.68
2023-05-21T06:11:16.904Z,5.90
2023-05-21T06:13:43.376Z,7.22
2023-05-21T06:16:10.063Z,10.02
2023-05-21T06:18:36.668Z,7.18
2023-05-21T06:21:03.185Z,5.60
2023-05-21T06:23:32.038Z,6.93
2023-05-21T06:25:58.509Z,7.22
2023-05-21T06:28:24.938Z,6.75
2023-05-21T06:30:51.377Z,6.75
2023-05-21T06:33:18.122Z,8.75
2023-05-21T06:35:44.716Z,6.18
2023-05-21T06:38:11.152Z,7.45
2023-05-21T06:40:37.587Z,6.95
2023-05-21T06:43:05.184Z,6.05
2023-05-21T06:45:31.866Z,8.50
2023-05-21T06:47:58.330Z,8.68
2023-05-21T06:50:24.804Z,6.72
2023-05-21T06:52:51.325Z,6.75
2023-05-21T06:55:17.850Z,7.57
2023-05-21T06:57:44.317Z,8.38
2023-05-21T07:00:12.313Z,8.02
2023-05-21T07:02:38.927Z,7.80
2023-05-21T07:05:05.756Z,6.95
2023-05-21T07:07:32.202Z,6.85
2023-05-21T07:09:58.616Z,9.73
2023-05-21T07:12:25.367Z,6.70
2023-05-21T07:14:51.782Z,6.78
2023-05-21T07:17:18.222Z,8.75
2023-05-21T07:19:44.608Z,9.38
2023-05-21T07:22:12.536Z,9.52
2023-05-21T07:24:38.976Z,8.32
2023-05-21T07:27:17.653Z,8.63
2023-05-21T07:29:44.511Z,7.88
2023-05-21T07:32:10.980Z,7.60
2023-05-21T07:34:37.484Z,8.35
2023-05-21T07:37:04.114Z,8.43
2023-05-21T07:39:31.400Z,7.70
2023-05-21T07:41:58.020Z,9.18
2023-05-21T07:44:24.559Z,8.85
2023-05-21T07:46:51.136Z,8.63
2023-05-21T07:49:17.782Z,8.63
2023-05-21T07:51:44.266Z,7.10
2023-05-21T07:54:11.054Z,10.82
2023-05-21T07:56:37.589Z,6.97
2023-05-21T07:59:04.026Z,8.90
2023-05-21T08:01:30.726Z,7.40
2023-05-21T08:03:57.241Z,8.18
2023-05-21T08:06:24.311Z,6.72
2023-05-21T08:08:50.849Z,11.13
2023-05-21T08:11:17.367Z,8.68
2023-05-21T08:13:43.804Z,8.80
2023-05-21T08:16:11.393Z,10.20
2023-05-21T08:18:37.791Z,9.75
2023-05-21T08:21:04.654Z,10.30
2023-05-21T08:23:31.130Z,9.77
2023-05-21T08:25:57.655Z,8.75
2023-05-21T08:28:24.254Z,8.32
2023-05-21T08:30:50.771Z,9.77
2023-05-21T08:33:18.887Z,10.65
2023-05-21T08:35:46.702Z,10.63
2023-05-21T08:38:13.162Z,9.68
2023-05-21T08:40:41.353Z,10.18
2023-05-21T08:43:07.921Z,11.98
2023-05-21T08:45:38.184Z,12.43
2023-05-21T08:48:06.397Z,11.00
2023-05-21T08:50:33.318Z,9.98
2023-05-21T08:53:01.405Z,10.50
2023-05-21T08:55:28.540Z,8.88
2023-05-21T08:57:55.341Z,11.65
2023-05-21T09:00:22.098Z,10.35
2023-05-21T09:02:48.695Z,9.20
2023-05-21T09:05:16.249Z,9.35
2023-05-21T09:07:54.395Z,9.70
2023-05-21T09:10:27.096Z,8.32
2023-05-21T09:12:53.736Z,11.63
2023-05-21T09:15:20.161Z,11.57
2023-05-21T09:17:48.139Z,13.00
2023-05-21T09:20:16.420Z,12.82
2023-05-21T09:22:45.285Z,12.02
2023-05-21T09:25:15.453Z,10.68
2023-05-21T09:27:42.171Z,13.30
2023-05-21T09:30:17.336Z,10.40
2023-05-21T09:32:45.040Z,11.90
2023-05-21T09:35:13.483Z,10.95
2023-05-21T09:37:43.739Z,11.25
2023-05-21T09:40:20.911Z,11.38
2023-05-21T09:42:49.526Z,9.38
2023-05-21T09:45:20.048Z,11.55
2023-05-21T09:47:48.017Z,11.70
2023-05-21T09:50:19.069Z,13.40
2023-05-21T09:52:45.976Z,11.77
2023-05-21T09:55:13.971Z,11.27
2023-05-21T09:57:47.165Z,13.68
2023-05-21T10:00:21.201Z,9.82
2023-05-21T10:02:59.667Z,11.05
2023-05-21T10:05:28.848Z,12.13
2023-05-21T10:08:01.038Z,11.98
2023-05-21T10:10:28.880Z,11.95
2023-05-21T10:12:59.601Z,13.73
2023-05-21T10:15:28.442Z,13.95
2023-05-21T10:17:56.277Z,11.07
2023-05-21T10:20:23.072Z,11.15
2023-05-21T10:22:50.660Z,11.75
2023-05-21T10:25:17.533Z,13.32
2023-05-21T10:27:44.883Z,11.07
2023-05-21T10:30:11.718Z,11.68
2023-05-21T10:32:41.774Z,11.68
2023-05-21T10:35:09.813Z,11.77
2023-05-21T10:37:36.613Z,11.98
2023-05-21T10:40:04.415Z,11.25
2023-05-21T10:42:30.939Z,11.10
2023-05-21T10:45:21.124Z,10.68
2023-05-21T10:48:08.933Z,14.40
2023-05-21T10:50:35.555Z,11.85
2023-05-21T10:53:13.707Z,11.05
2023-05-21T10:55:58.427Z,12.15
2023-05-21T10:58:46.570Z,12.75
2023-05-21T11:01:15.182Z,12.73
2023-05-21T11:03:42.060Z,10.98
2023-05-21T11:06:09.423Z,13.75
2023-05-21T11:08:37.234Z,12.82
2023-05-21T11:11:04.435Z,13.18
2023-05-21T11:13:58.358Z,11.77
2023-05-21T11:16:27.718Z,10.90
2023-05-21T11:18:54.977Z,11.77
2023-05-21T11:21:22.567Z,10.23
2023-05-21T11:23:56.675Z,13.50
2023-05-21T11:26:27.731Z,12.35
2023-05-21T11:29:03.497Z,12.02
2023-05-21T11:31:37.962Z,11.40
2023-05-21T11:34:28.559Z,12.20
2023-05-21T11:37:30.145Z,12.68
2023-05-21T11:39:59.040Z,11.55
2023-05-21T11:42:38.635Z,12.70
2023-05-21T11:45:05.716Z,11.40
2023-05-21T11:47:32.479Z,11.85
2023-05-21T11:50:01.703Z,11.23
2023-05-21T11:52:32.709Z,11.73
2023-05-21T11:54:59.784Z,12.63
2023-05-21T11:57:31.262Z,12.10
2023-05-21T11:59:59.101Z,12.55
2023-05-21T12:02:28.267Z,14.27
2023-05-21T12:04:54.746Z,12.70
2023-05-21T12:07:21.944Z,12.77
2023-05-21T12:09:50.145Z,14.40
2023-05-21T12:12:22.305Z,13.20
2023-05-21T12:14:54.496Z,12.05
2023-05-21T12:17:26.505Z,12.38
2023-05-21T12:19:54.415Z,12.27
2023-05-21T12:22:21.374Z,12.88
2023-05-21T12:24:48.649Z,11.50
2023-05-21T12:27:16.882Z,13.10
2023-05-21T12:29:45.476Z,12.00
2023-05-21T12:32:15.839Z,11.23
2023-05-21T12:34:50.301Z,10.93
2023-05-21T12:37:23.951Z,13.18
2023-05-21T12:39:51.774Z,13.75
2023-05-21T12:42:40.012Z,13.32
2023-05-21T12:45:08.272Z,12.43
2023-05-21T12:47:35.128Z,12.13
2023-05-21T12:50:02.947Z,10.80
2023-05-21T12:52:30.951Z,11.35
2023-05-21T12:54:58.337Z,11.68
2023-05-21T12:57:28.072Z,12.10
2023-05-21T12:59:56.920Z,11.50
2023-05-21T13:02:27.636Z,13.38
2023-05-21T13:04:58.719Z,12.85
2023-05-21T13:07:26.930Z,12.02
2023-05-21T13:09:54.311Z,11.80
2023-05-21T13:12:22.346Z,13.68
2023-05-21T13:14:56.414Z,13.25
2023-05-21T13:17:24.452Z,13.77
2023-05-21T13:20:10.187Z,11.50
2023-05-21T13:22:39.161Z,13.00
2023-05-21T13:25:07.254Z,13.65
2023-05-21T13:27:33.666Z,13.05
2023-05-21T13:30:00.978Z,11.88
2023-05-21T13:32:27.593Z,12.98
2023-05-21T13:34:54.062Z,11.57
2023-05-21T13:37:20.675Z,12.82
2023-05-21T13:39:50.359Z,11.75
2023-05-21T13:42:16.735Z,10.52
2023-05-21T13:44:43.123Z,10.50
2023-05-21T13:47:10.397Z,10.60
2023-05-21T13:49:38.057Z,10.65
2023-05-21T13:52:05.085Z,12.38
2023-05-21T13:54:32.404Z,10.40
2023-05-21T13:56:58.817Z,10.90
2023-05-21T13:59:25.460Z,11.48
2023-05-21T14:01:52.378Z,10.90
2023-05-21T14:04:20.043Z,12.90
2023-05-21T14:06:46.792Z,12.55
2023-05-21T14:09:13.433Z,10.20
2023-05-21T14:11:39.836Z,11.00
2023-05-21T14:14:06.250Z,12.38
2023-05-21T14:16:32.748Z,10.27
2023-05-21T14:18:59.500Z,10.93
2023-05-21T14:21:26.174Z,10.07
2023-05-21T14:23:52.814Z,10.63
2023-05-21T14:26:19.220Z,10.43
2023-05-21T14:28:46.237Z,10.13
2023-05-21T14:31:12.733Z,9.65
2023-05-21T14:33:39.342Z,10.43
2023-05-21T14:36:05.885Z,12.52
2023-05-21T14:38:33.083Z,10.68
2023-05-21T14:40:59.496Z,11.73
2023-05-21T14:43:25.926Z,10.68
2023-05-21T14:45:52.455Z,10.15
2023-05-21T14:48:22.688Z,9.98
2023-05-21T14:50:51.009Z,10.13
2023-05-21T14:53:18.132Z,11.50
2023-05-21T14:55:44.905Z,12.55
2023-05-21T14:58:11.597Z,11.82
2023-05-21T15:00:38.610Z,11.80
2023-05-21T15:03:06.673Z,11.15
2023-05-21T15:05:33.489Z,10.93
2023-05-21T15:07:59.958Z,10.43
2023-05-21T15:10:27.350Z,11.77
2023-05-21T15:12:54.444Z,11.30
2023-05-21T15:15:21.342Z,12.05
2023-05-21T15:17:48.879Z,11.05
2023-05-21T15:20:16.085Z,11.27
2023-05-21T15:22:42.685Z,11.60
2023-05-21T15:25:09.503Z,12.30
2023-05-21T15:27:35.930Z,12.15
2023-05-21T15:30:02.717Z,12.63
2023-05-21T15:32:29.238Z,10.90
2023-05-21T15:34:55.871Z,11.75
2023-05-21T15:37:22.480Z,11.75
2023-05-21T15:39:49.004Z,11.68
2023-05-21T15:42:15.526Z,11.15
2023-05-21T15:44:42.240Z,13.50
2023-05-21T15:47:08.842Z,10.65
2023-05-21T15:49:35.496Z,11.18
2023-05-21T15:52:02.938Z,11.75
2023-05-21T15:54:30.600Z,13.07
2023-05-21T15:56:57.281Z,11.43
2023-05-21T15:59:25.573Z,12.07
2023-05-21T16:01:52.014Z,11.13
2023-05-21T16:04:20.190Z,11.57
2023-05-21T16:06:47.455Z,12.13
2023-05-21T16:09:14.788Z,11.90
2023-05-21T16:11:41.187Z,13.80
2023-05-21T16:14:07.538Z,13.10
2023-05-21T16:16:34.098Z,14.35
2023-05-21T16:19:01.512Z,11.43
2023-05-21T16:21:28.523Z,11.27
2023-05-21T16:23:54.930Z,11.73
2023-05-21T16:26:21.378Z,12.65
2023-05-21T16:28:47.795Z,12.60
2023-05-21T16:31:14.191Z,10.80
2023-05-21T16:33:40.715Z,11.65
2023-05-21T16:36:07.274Z,11.02
2023-05-21T16:38:33.732Z,11.10
2023-05-21T16:41:00.248Z,11.73
2023-05-21T16:43:26.671Z,12.65
2023-05-21T16:45:53.341Z,11.73
2023-05-21T16:48:19.880Z,11.30
2023-05-21T16:50:49.166Z,11.48
2023-05-21T16:53:16.175Z,12.68
2023-05-21T16:55:43.213Z,10.80
2023-05-21T16:58:10.812Z,12.35
2023-05-21T17:00:37.442Z,11.18
2023-05-21T17:03:04.151Z,12.98
2023-05-21T17:05:30.761Z,10.93
2023-05-21T17:07:57.204Z,10.98
2023-05-21T17:10:24.946Z,10.85
2023-05-21T17:12:51.589Z,11.80
2023-05-21T17:15:18.094Z,10.93
2023-05-21T17:17:44.530Z,12.27
2023-05-21T17:20:11.887Z,10.45
2023-05-21T17:22:39.044Z,13.13
2023-05-21T17:25:05.984Z,11.57
2023-05-21T17:27:32.904Z,10.65
2023-05-21T17:29:59.441Z,11.68
2023-05-21T17:32:25.841Z,11.20
2023-05-21T17:34:53.033Z,11.35
2023-05-21T17:37:19.486Z,13.70
2023-05-21T17:39:45.900Z,11.48
2023-05-21T17:42:12.324Z,10.65
2023-05-21T17:44:38.749Z,10.80
2023-05-21T17:47:06.591Z,11.32
2023-05-21T17:49:33.139Z,10.77
2023-05-21T17:52:00.630Z,9.95
2023-05-21T17:54:27.057Z,11.25
2023-05-21T17:56:53.484Z,10.48
2023-05-21T17:59:21.772Z,11.52
2023-05-21T18:01:48.201Z,10.50
2023-05-21T18:04:14.662Z,10.82
2023-05-21T18:06:41.142Z,11.40
2023-05-21T18:09:07.873Z,10.65
2023-05-21T18:11:34.471Z,11.88
2023-05-21T18:14:00.859Z,10.65
2023-05-21T18:16:30.144Z,11.20
2023-05-21T18:18:56.686Z,10.57
2023-05-21T18:21:23.479Z,10.68
2023-05-21T18:23:50.081Z,10.32
2023-05-21T18:26:16.544Z,13.15
2023-05-21T18:28:42.967Z,11.20
2023-05-21T18:31:09.518Z,10.80
2023-05-21T18:33:35.896Z,9.93
2023-05-21T18:36:02.346Z,11.43
2023-05-21T18:38:28.789Z,11.80
2023-05-21T18:40:55.267Z,10.32
2023-05-21T18:43:21.646Z,11.95
2023-05-21T18:45:48.083Z,11.07
2023-05-21T18:48:14.502Z,15.35
2023-05-21T18:50:40.996Z,12.20
2023-05-21T18:53:07.371Z,11.23
2023-05-21T18:55:34.389Z,11.88
2023-05-21T18:58:01.378Z,13.13
2023-05-21T19:00:27.894Z,11.55
2023-05-21T19:02:55.377Z,11.38
2023-05-21T19:05:22.123Z,12.48
2023-05-21T19:07:48.626Z,11.25
2023-05-21T19:10:15.178Z,11.68
2023-05-21T19:12:43.331Z,12.00
2023-05-21T19:15:10.470Z,11.70
2023-05-21T19:17:39.578Z,11.65
2023-05-21T19:20:07.924Z,13.57
2023-05-21T19:22:36.813Z,15.02
2023-05-21T19:25:03.658Z,21.30
2023-05-21T19:27:30.172Z,14.13
2023-05-21T19:29:56.597Z,14.57
2023-05-21T19:32:23.631Z,12.10
2023-05-21T19:34:51.579Z,13.15
2023-05-21T19:37:18.006Z,13.57
2023-05-21T19:39:49.349Z,16.30
2023-05-21T19:42:17.219Z,13.23
2023-05-21T19:44:43.678Z,13.05
2023-05-21T19:47:10.095Z,12.35
2023-05-21T19:49:36.565Z,14.40
2023-05-21T19:52:04.823Z,16.88
2023-05-21T19:54:31.221Z,12.00
2023-05-21T19:56:57.729Z,12.05
2023-05-21T19:59:24.343Z,14.18
2023-05-21T20:01:51.509Z,13.43
2023-05-21T20:04:18.024Z,11.88
2023-05-21T20:06:44.540Z,13.38
2023-05-21T20:09:13.157Z,14.50
2023-05-21T20:11:39.586Z,14.40
2023-05-21T20:14:06.007Z,12.50
2023-05-21T20:16:33.340Z,13.65
2023-05-21T20:19:01.656Z,14.68
2023-05-21T20:21:30.385Z,13.65
2023-05-21T20:23:56.851Z,13.15
2023-05-21T20:26:23.265Z,13.18
2023-05-21T20:28:49.698Z,13.50
2023-05-21T20:31:16.208Z,14.57
2023-05-21T20:33:42.958Z,11.68
2023-05-21T20:36:09.480Z,11.88
2023-05-21T20:38:37.907Z,10.07
2023-05-21T20:41:04.964Z,11.45
2023-05-21T20:43:31.441Z,11.30
2023-05-21T20:45:59.637Z,10.90
2023-05-21T20:48:31.893Z,9.93
2023-05-21T20:50:59.899Z,8.80
2023-05-21T20:53:26.716Z,8.02
2023-05-21T20:55:54.635Z,9.38
2023-05-21T20:58:23.741Z,8.00
2023-05-21T21:00:50.319Z,9.32
2023-05-21T21:03:17.805Z,7.80
2023-05-21T21:05:44.544Z,7.43
2023-05-21T21:08:10.938Z,8.68
2023-05-21T21:10:38.641Z,7.82
2023-05-21T21:13:07.120Z,6.80
2023-05-21T21:15:34.020Z,6.72
2023-05-21T21:18:00.509Z,7.70
2023-05-21T21:20:26.984Z,7.00
2023-05-21T21:22:53.569Z,7.60
2023-05-21T21:25:19.969Z,8.10
2023-05-21T21:27:46.437Z,9.82
2023-05-21T21:30:13.048Z,8.68
2023-05-21T21:32:40.194Z,8.50
2023-05-21T21:35:06.781Z,7.68
2023-05-21T21:37:33.363Z,7.72
2023-05-21T21:39:59.754Z,6.75
2023-05-21T21:42:26.173Z,8.75
2023-05-21T21:44:52.594Z,7.00
2023-05-21T21:47:19.053Z,7.43
2023-05-21T21:49:45.401Z,6.80
2023-05-21T21:52:12.419Z,8.15
2023-05-21T21:54:38.868Z,6.80
2023-05-21T21:57:05.484Z,7.75
2023-05-21T21:59:32.047Z,8.70
2023-05-21T22:01:58.557Z,7.55
2023-05-21T22:04:25.098Z,7.13
2023-05-21T22:06:51.854Z,8.23
2023-05-21T22:09:18.379Z,8.50
2023-05-21T22:11:44.874Z,7.20
2023-05-21T22:14:11.537Z,8.48
2023-05-21T22:16:37.923Z,6.55
2023-05-21T22:19:04.450Z,7.07
2023-05-21T22:21:32.787Z,5.95
2023-05-21T22:23:59.842Z,7.50
2023-05-21T22:26:26.250Z,7.28
2023-05-21T22:28:52.729Z,9.23
2023-05-21T22:31:19.248Z,7.45
2023-05-21T22:33:45.657Z,10.32
2023-05-21T22:36:12.103Z,9.18
2023-05-21T22:38:38.481Z,9.57
2023-05-21T22:41:04.937Z,9.80
2023-05-21T22:43:33.449Z,7.97
2023-05-21T22:46:00.145Z,8.57
2023-05-21T22:48:26.712Z,9.52
2023-05-21T22:50:53.491Z,7.55
2023-05-21T22:53:20.585Z,10.80
2023-05-21T22:55:47.044Z,7.95
2023-05-21T22:58:13.404Z,8.90
2023-05-21T23:00:39.985Z,8.05
2023-05-21T23:03:06.604Z,9.63
2023-05-21T23:05:33.036Z,10.65
2023-05-21T23:07:59.410Z,8.20
2023-05-21T23:10:26.160Z,8.68
2023-05-21T23:12:52.610Z,8.50
2023-05-21T23:15:19.069Z,9.63
2023-05-21T23:17:45.845Z,7.93
2023-05-21T23:20:12.349Z,10.02
2023-05-21T23:22:38.751Z,7.55
2023-05-21T23:25:05.682Z,9.95
2023-05-21T23:27:32.109Z,11.25
2023-05-21T23:29:58.466Z,10.13
2023-05-21T23:32:25.162Z,9.95
2023-05-21T23:34:51.541Z,9.60
2023-05-21T23:37:19.476Z,10.00
2023-05-21T23:39:49.407Z,13.02
2023-05-21T23:42:16.817Z,10.27
2023-05-21T23:44:43.261Z,7.95
2023-05-21T23:47:10.045Z,9.10
2023-05-21T23:49:36.393Z,9.60
2023-05-21T23:52:02.931Z,9.63
2023-05-21T23:54:29.333Z,10.23
2023-05-21T23:56:55.873Z,10.32
2023-05-21T23:59:22.244Z,9.73
